createdAt,value
2022-12-15T00:00:20.677Z,94.75
2022-12-15T00:03:06.732Z,101.90
2022-12-15T00:08:39.057Z,99.30
2022-12-15T00:11:25.036Z,103.53
2022-12-15T00:14:10.941Z,100.95
2022-12-15T00:16:57.013Z,107.32
2022-12-15T00:22:29.353Z,140.15
2022-12-15T00:25:15.326Z,142.00
2022-12-15T00:28:01.271Z,130.85
2022-12-15T00:30:49.596Z,132.18
2022-12-15T00:33:35.640Z,142.88
2022-12-15T00:36:21.623Z,121.20
2022-12-15T00:38:48.985Z,126.83
2022-12-15T00:41:18.888Z,133.88
2022-12-15T00:43:46.867Z,124.28
2022-12-15T00:46:33.226Z,135.43
2022-12-15T00:49:01.472Z,129.43
2022-12-15T00:51:47.436Z,121.80
2022-12-15T00:54:35.027Z,126.70
2022-12-15T00:57:21.094Z,128.10
2022-12-15T01:02:53.514Z,116.77
2022-12-15T01:05:39.518Z,116.30
2022-12-15T01:08:25.487Z,114.95
2022-12-15T01:11:11.590Z,117.45
2022-12-15T01:16:43.313Z,131.35
2022-12-15T01:21:57.279Z,153.25
2022-12-15T01:24:24.613Z,140.65
2022-12-15T01:26:51.882Z,146.40
2022-12-15T01:29:19.134Z,148.85
2022-12-15T01:31:49.921Z,146.35
2022-12-15T01:34:20.127Z,160.25
2022-12-15T01:36:47.763Z,163.45
2022-12-15T01:39:15.971Z,145.48
2022-12-15T01:41:43.189Z,139.00
2022-12-15T01:44:25.020Z,146.82
2022-12-15T01:46:56.462Z,138.43
2022-12-15T01:49:32.518Z,133.20
2022-12-15T01:52:05.136Z,137.43
2022-12-15T01:54:57.841Z,121.97
2022-12-15T01:57:30.407Z,125.03
2022-12-15T02:00:05.328Z,125.72
2022-12-15T02:05:09.641Z,136.07
2022-12-15T02:07:36.917Z,149.13
2022-12-15T02:10:07.546Z,150.82
2022-12-15T02:13:35.645Z,148.57
2022-12-15T02:16:37.109Z,148.02
2022-12-15T02:19:38.242Z,150.95
2022-12-15T02:22:48.855Z,144.85
2022-12-15T02:25:50.954Z,150.35
2022-12-15T02:29:34.833Z,140.23
2022-12-15T02:32:17.182Z,143.27
2022-12-15T02:35:04.093Z,142.82
2022-12-15T02:37:39.629Z,128.60
2022-12-15T02:42:48.538Z,119.22
2022-12-15T02:45:32.368Z,114.20
2022-12-15T02:48:33.186Z,117.82
2022-12-15T02:51:51.257Z,111.03
2022-12-15T02:55:02.230Z,110.40
2022-12-15T02:58:08.941Z,103.93
2022-12-15T03:00:46.481Z,101.40
2022-12-15T03:03:20.486Z,90.50
2022-12-15T03:05:55.115Z,109.05
2022-12-15T03:08:23.108Z,107.22
2022-12-15T03:10:53.284Z,107.80
2022-12-15T03:13:24.825Z,104.05
2022-12-15T03:15:54.464Z,107.55
2022-12-15T03:18:21.772Z,105.03
2022-12-15T03:20:50.632Z,98.63
2022-12-15T03:23:17.806Z,99.22
2022-12-15T03:25:46.134Z,98.05
2022-12-15T03:28:18.094Z,104.20
2022-12-15T03:30:45.414Z,97.65
2022-12-15T03:33:18.514Z,96.88
2022-12-15T03:35:45.731Z,96.90
2022-12-15T03:38:13.223Z,104.97
2022-12-15T03:40:40.502Z,100.70
2022-12-15T03:43:07.706Z,108.65
2022-12-15T03:45:34.982Z,99.43
2022-12-15T03:48:02.397Z,98.43
2022-12-15T03:50:30.349Z,100.30
2022-12-15T03:53:02.181Z,92.35
2022-12-15T03:55:30.797Z,93.80
2022-12-15T03:57:59.309Z,97.35
2022-12-15T04:00:27.361Z,95.70
2022-12-15T04:02:54.894Z,92.30
2022-12-15T04:05:29.136Z,90.05
2022-12-15T04:07:58.359Z,96.55
2022-12-15T04:10:34.349Z,90.85
2022-12-15T04:13:10.717Z,92.40
2022-12-15T04:18:10.480Z,93.72
2022-12-15T04:20:40.496Z,97.35
2022-12-15T04:23:08.334Z,102.20
2022-12-15T04:25:55.585Z,107.13
2022-12-15T04:28:41.506Z,97.85
2022-12-15T04:31:36.688Z,103.82
2022-12-15T04:34:27.332Z,98.75
2022-12-15T04:37:13.484Z,93.32
2022-12-15T04:42:51.918Z,115.72
2022-12-15T04:45:42.715Z,105.32
2022-12-15T04:48:29.570Z,93.70
2022-12-15T04:51:15.676Z,106.63
2022-12-15T04:56:51.322Z,107.10
2022-12-15T04:59:37.324Z,96.90
2022-12-15T05:02:23.309Z,93.78
2022-12-15T05:05:09.400Z,95.20
2022-12-15T05:07:55.429Z,94.25
2022-12-15T05:10:41.509Z,95.07
2022-12-15T05:16:14.067Z,91.47
2022-12-15T05:19:00.278Z,94.80
2022-12-15T05:24:31.825Z,90.63
2022-12-15T05:27:17.835Z,88.90
2022-12-15T05:30:03.810Z,85.55
2022-12-15T05:32:33.309Z,89.85
2022-12-15T05:35:01.413Z,86.10
2022-12-15T05:37:28.808Z,95.80
2022-12-15T05:39:55.998Z,88.75
2022-12-15T05:42:23.333Z,86.25
2022-12-15T05:44:50.549Z,83.63
2022-12-15T05:47:17.657Z,89.13
2022-12-15T05:49:44.829Z,84.35
2022-12-15T05:52:12.288Z,86.55
2022-12-15T05:54:39.422Z,86.85
2022-12-15T05:57:06.791Z,89.35
2022-12-15T05:59:33.992Z,81.20
2022-12-15T06:02:01.317Z,92.63
2022-12-15T06:04:28.704Z,87.38
2022-12-15T06:06:56.040Z,84.45
2022-12-15T06:09:23.187Z,84.03
2022-12-15T06:11:50.455Z,86.65
2022-12-15T06:14:17.680Z,88.20
2022-12-15T06:16:50.046Z,86.38
2022-12-15T06:19:19.916Z,80.90
2022-12-15T06:21:47.481Z,82.07
2022-12-15T06:24:15.110Z,80.30
2022-12-15T06:26:42.539Z,83.43
2022-12-15T06:29:12.149Z,82.93
2022-12-15T06:31:40.737Z,82.50
2022-12-15T06:34:13.384Z,84.75
2022-12-15T06:36:42.503Z,81.72
2022-12-15T06:39:15.071Z,92.53
2022-12-15T06:41:43.971Z,81.85
2022-12-15T06:44:16.217Z,80.80
2022-12-15T06:46:45.625Z,73.88
2022-12-15T06:49:13.469Z,73.10
2022-12-15T06:51:41.565Z,91.68
2022-12-15T06:54:11.138Z,80.05
2022-12-15T06:56:39.558Z,76.05
2022-12-15T06:59:08.369Z,80.88
2022-12-15T07:01:36.092Z,75.15
2022-12-15T07:04:05.446Z,80.38
2022-12-15T07:06:36.741Z,80.57
2022-12-15T07:09:10.344Z,79.75
2022-12-15T07:11:37.651Z,77.78
2022-12-15T07:14:05.140Z,78.90
2022-12-15T07:16:32.820Z,72.57
2022-12-15T07:19:00.122Z,70.13
2022-12-15T07:21:27.281Z,75.93
2022-12-15T07:23:56.462Z,70.00
2022-12-15T07:26:24.735Z,70.13
2022-12-15T07:28:53.349Z,64.88
2022-12-15T07:31:22.442Z,63.17
2022-12-15T07:33:51.833Z,60.83
2022-12-15T07:36:18.953Z,57.28
2022-12-15T07:38:49.889Z,61.35
2022-12-15T07:41:20.294Z,68.40
2022-12-15T07:43:48.310Z,61.33
2022-12-15T07:46:17.015Z,64.50
2022-12-15T07:48:50.118Z,65.72
2022-12-15T07:51:20.335Z,75.80
2022-12-15T07:53:50.171Z,70.93
2022-12-15T07:56:19.605Z,63.83
2022-12-15T07:58:46.988Z,74.38
2022-12-15T08:01:15.770Z,69.10
2022-12-15T08:03:43.354Z,72.57
2022-12-15T08:06:15.108Z,68.47
2022-12-15T08:08:50.537Z,70.55
2022-12-15T08:11:22.062Z,73.15
2022-12-15T08:14:02.458Z,68.13
2022-12-15T08:16:31.191Z,74.13
2022-12-15T08:18:58.643Z,82.75
2022-12-15T08:21:26.005Z,68.35
2022-12-15T08:23:53.260Z,71.25
2022-12-15T08:26:25.042Z,69.30
2022-12-15T08:28:55.587Z,73.35
2022-12-15T08:31:24.443Z,66.20
2022-12-15T08:33:51.802Z,75.10
2022-12-15T08:36:20.048Z,67.63
2022-12-15T08:38:48.162Z,72.55
2022-12-15T08:41:26.437Z,64.18
2022-12-15T08:43:55.468Z,59.55
2022-12-15T08:46:30.423Z,63.63
2022-12-15T08:48:58.185Z,58.38
2022-12-15T08:51:29.794Z,62.15
2022-12-15T08:53:59.109Z,59.63
2022-12-15T08:56:28.149Z,54.67
2022-12-15T08:59:02.124Z,58.05
2022-12-15T09:01:32.823Z,55.75
2022-12-15T09:04:01.292Z,52.00
2022-12-15T09:06:35.191Z,55.13
2022-12-15T09:09:10.219Z,44.38
2022-12-15T09:11:37.445Z,40.40
2022-12-15T09:14:04.738Z,39.30
2022-12-15T09:16:32.057Z,36.97
2022-12-15T09:19:00.848Z,31.27
2022-12-15T09:21:30.792Z,30.88
2022-12-15T09:24:02.164Z,30.15
2022-12-15T09:26:33.416Z,35.53
2022-12-15T09:29:02.023Z,34.97
2022-12-15T09:31:33.672Z,35.38
2022-12-15T09:34:02.042Z,37.90
2022-12-15T09:36:32.464Z,30.15
2022-12-15T09:39:01.804Z,36.15
2022-12-15T09:41:34.818Z,39.80
2022-12-15T09:44:19.869Z,38.67
2022-12-15T09:47:11.448Z,48.55
2022-12-15T09:49:58.779Z,42.50
2022-12-15T09:52:39.831Z,48.83
2022-12-15T09:55:32.685Z,45.97
2022-12-15T09:58:57.200Z,48.42
2022-12-15T10:02:00.209Z,45.42
2022-12-15T10:05:06.159Z,42.53
2022-12-15T10:07:50.392Z,41.22
2022-12-15T10:10:46.485Z,40.45
2022-12-15T10:13:25.366Z,46.03
2022-12-15T10:16:31.054Z,43.08
2022-12-15T10:19:36.522Z,38.83
2022-12-15T10:22:04.049Z,42.15
2022-12-15T10:27:49.192Z,33.25
2022-12-15T10:30:16.983Z,40.08
2022-12-15T10:33:01.491Z,35.50
2022-12-15T10:35:36.330Z,33.75
2022-12-15T10:38:23.294Z,36.20
2022-12-15T10:40:59.384Z,38.00
2022-12-15T10:43:37.306Z,34.00
2022-12-15T10:46:20.111Z,38.28
2022-12-15T10:48:56.390Z,33.42
2022-12-15T10:51:43.076Z,34.65
2022-12-15T10:54:10.218Z,30.92
2022-12-15T10:56:59.403Z,33.50
2022-12-15T10:59:33.082Z,34.13
2022-12-15T11:02:33.531Z,28.88
2022-12-15T11:05:17.615Z,29.27
2022-12-15T11:08:16.896Z,39.20
2022-12-15T11:11:17.603Z,33.00
2022-12-15T11:14:13.104Z,37.35
2022-12-15T11:16:58.873Z,34.88
2022-12-15T11:20:06.937Z,37.20
2022-12-15T11:22:51.110Z,37.20
2022-12-15T11:25:43.089Z,40.45
2022-12-15T11:28:24.370Z,40.42
2022-12-15T11:31:14.937Z,40.88
2022-12-15T11:33:42.106Z,37.20
2022-12-15T11:36:54.305Z,39.78
2022-12-15T11:40:18.234Z,41.75
2022-12-15T11:43:21.618Z,42.83
2022-12-15T11:46:19.152Z,43.85
2022-12-15T11:49:47.212Z,39.10
2022-12-15T11:52:26.608Z,42.97
2022-12-15T11:55:41.261Z,45.22
2022-12-15T11:59:05.094Z,46.83
2022-12-15T12:02:27.874Z,42.47
2022-12-15T12:05:57.838Z,42.08
2022-12-15T12:09:06.793Z,48.22
2022-12-15T12:12:09.233Z,41.65
2022-12-15T12:15:23.555Z,44.65
2022-12-15T12:17:58.370Z,41.20
2022-12-15T12:20:59.215Z,38.87
2022-12-15T12:23:53.264Z,37.67
2022-12-15T12:29:58.200Z,42.08
2022-12-15T12:32:47.321Z,42.83
2022-12-15T12:35:45.846Z,42.03
2022-12-15T12:38:13.860Z,43.42
2022-12-15T12:40:40.918Z,50.15
2022-12-15T12:43:31.843Z,43.28
2022-12-15T12:46:32.144Z,47.45
2022-12-15T12:49:42.011Z,43.70
2022-12-15T12:52:52.168Z,43.70
2022-12-15T12:55:44.010Z,45.45
2022-12-15T12:58:41.455Z,52.28
2022-12-15T13:01:13.033Z,47.40
2022-12-15T13:03:42.610Z,42.35
2022-12-15T13:06:42.339Z,48.20
2022-12-15T13:09:18.952Z,49.85
2022-12-15T13:11:49.149Z,57.08
2022-12-15T13:14:53.821Z,55.00
2022-12-15T13:17:32.965Z,50.92
2022-12-15T13:20:03.078Z,58.13
2022-12-15T13:22:36.049Z,54.92
2022-12-15T13:25:48.583Z,60.58
2022-12-15T13:28:36.251Z,63.78
2022-12-15T13:31:21.203Z,59.90
2022-12-15T13:33:51.425Z,63.03
2022-12-15T13:36:37.212Z,63.47
2022-12-15T13:39:16.337Z,62.35
2022-12-15T13:42:15.266Z,66.85
2022-12-15T13:45:05.473Z,66.30
2022-12-15T13:47:33.525Z,70.53
2022-12-15T13:50:09.449Z,71.80
2022-12-15T13:55:51.476Z,66.50
2022-12-15T13:58:20.938Z,71.95
2022-12-15T14:00:58.088Z,74.13
2022-12-15T14:03:26.655Z,72.68
2022-12-15T14:06:00.204Z,81.35
2022-12-15T14:08:30.504Z,76.13
2022-12-15T14:11:16.695Z,71.40
2022-12-15T14:13:54.159Z,81.38
2022-12-15T14:16:23.060Z,81.00
2022-12-15T14:22:04.226Z,74.57
2022-12-15T14:24:39.456Z,79.30
2022-12-15T14:27:07.519Z,82.32
2022-12-15T14:29:34.673Z,79.32
2022-12-15T14:32:02.250Z,81.53
2022-12-15T14:34:39.909Z,85.32
2022-12-15T14:37:20.089Z,86.65
2022-12-15T14:39:50.153Z,80.43
2022-12-15T14:42:29.291Z,84.85
2022-12-15T14:44:58.338Z,83.80
2022-12-15T14:47:29.175Z,87.43
2022-12-15T14:50:01.024Z,83.15
2022-12-15T14:52:41.253Z,82.43
2022-12-15T14:55:36.793Z,91.78
2022-12-15T14:58:36.083Z,82.25
2022-12-15T15:01:40.892Z,78.40
2022-12-15T15:04:34.133Z,80.60
2022-12-15T15:07:18.231Z,76.55
2022-12-15T15:09:46.941Z,81.05
2022-12-15T15:12:25.101Z,79.90
2022-12-15T15:15:04.035Z,75.50
2022-12-15T15:17:52.648Z,77.13
2022-12-15T15:20:29.327Z,80.95
2022-12-15T15:23:17.813Z,82.65
2022-12-15T15:26:04.810Z,84.55
2022-12-15T15:28:44.831Z,79.38
2022-12-15T15:31:41.768Z,87.43
2022-12-15T15:34:09.693Z,77.53
2022-12-15T15:36:39.538Z,84.05
2022-12-15T15:39:15.762Z,84.13
2022-12-15T15:41:43.127Z,83.88
2022-12-15T15:44:15.865Z,88.82
2022-12-15T15:46:52.020Z,89.97
2022-12-15T15:49:21.952Z,86.43
2022-12-15T15:51:49.642Z,83.13
2022-12-15T15:54:22.963Z,82.35
2022-12-15T15:56:50.214Z,84.95
2022-12-15T15:59:21.403Z,79.82
2022-12-15T16:01:55.973Z,74.28
2022-12-15T16:04:24.237Z,82.73
2022-12-15T16:06:52.922Z,85.97
2022-12-15T16:09:20.460Z,77.82
2022-12-15T16:11:47.997Z,80.55
2022-12-15T16:14:17.734Z,77.03
2022-12-15T16:16:45.677Z,82.22
2022-12-15T16:19:13.031Z,84.97
2022-12-15T16:21:42.615Z,77.70
2022-12-15T16:24:16.997Z,88.47
2022-12-15T16:26:51.067Z,81.68
2022-12-15T16:29:21.608Z,82.13
2022-12-15T16:31:49.084Z,80.45
2022-12-15T16:34:19.026Z,81.72
2022-12-15T16:36:46.361Z,76.78
2022-12-15T16:39:35.003Z,80.78
2022-12-15T16:42:02.918Z,88.97
2022-12-15T16:44:30.828Z,82.25
2022-12-15T16:46:58.911Z,85.20
2022-12-15T16:49:27.755Z,82.05
2022-12-15T16:51:55.141Z,72.35
2022-12-15T16:54:28.793Z,72.88
2022-12-15T16:56:58.328Z,67.00
2022-12-15T16:59:35.643Z,72.68
2022-12-15T17:02:28.127Z,68.57
2022-12-15T17:04:55.847Z,68.88
2022-12-15T17:07:26.629Z,59.72
2022-12-15T17:09:54.008Z,77.05
2022-12-15T17:12:21.302Z,65.60
2022-12-15T17:14:48.521Z,67.20
2022-12-15T17:17:19.524Z,65.22
2022-12-15T17:22:34.383Z,74.78
2022-12-15T17:25:01.844Z,70.88
2022-12-15T17:27:30.128Z,77.53
2022-12-15T17:29:59.715Z,74.30
2022-12-15T17:32:26.935Z,77.85
2022-12-15T17:34:54.234Z,76.80
2022-12-15T17:37:21.521Z,72.25
2022-12-15T17:39:51.235Z,76.97
2022-12-15T17:42:21.306Z,89.38
2022-12-15T17:44:49.434Z,76.80
2022-12-15T17:47:19.464Z,76.35
2022-12-15T17:49:47.302Z,69.18
2022-12-15T17:52:30.365Z,83.68
2022-12-15T17:54:58.098Z,71.97
2022-12-15T17:57:25.693Z,88.53
2022-12-15T17:59:54.001Z,73.60
2022-12-15T18:02:21.289Z,74.97
2022-12-15T18:04:48.654Z,83.72
2022-12-15T18:07:21.472Z,76.55
2022-12-15T18:09:51.331Z,77.53
2022-12-15T18:12:27.474Z,76.28
2022-12-15T18:14:56.656Z,86.28
2022-12-15T18:17:24.514Z,80.57
2022-12-15T18:19:51.722Z,81.55
2022-12-15T18:22:24.569Z,82.82
2022-12-15T18:24:54.300Z,73.63
2022-12-15T18:27:29.025Z,74.80
2022-12-15T18:29:56.994Z,71.97
2022-12-15T18:32:27.321Z,78.93
2022-12-15T18:34:55.143Z,72.82
2022-12-15T18:37:28.183Z,88.85
2022-12-15T18:39:59.493Z,86.10
2022-12-15T18:42:31.342Z,85.95
2022-12-15T18:45:00.318Z,77.68
2022-12-15T18:47:27.846Z,77.57
2022-12-15T18:49:55.151Z,84.22
2022-12-15T18:52:27.673Z,83.00
2022-12-15T18:54:56.071Z,74.10
2022-12-15T18:57:38.190Z,74.63
2022-12-15T19:00:14.432Z,81.88
2022-12-15T19:02:43.030Z,67.15
2022-12-15T19:05:28.952Z,77.93
2022-12-15T19:08:10.254Z,58.72
2022-12-15T19:11:13.212Z,68.45
2022-12-15T19:13:40.576Z,77.28
2022-12-15T19:16:19.901Z,65.70
2022-12-15T19:19:06.026Z,93.00
2022-12-15T19:24:44.894Z,66.15
2022-12-15T19:27:23.360Z,65.50
2022-12-15T19:29:51.228Z,67.88
2022-12-15T19:32:18.352Z,70.25
2022-12-15T19:34:46.155Z,67.60
2022-12-15T19:37:25.533Z,57.63
2022-12-15T19:39:54.271Z,62.25
2022-12-15T19:42:35.931Z,58.50
2022-12-15T19:45:24.061Z,62.10
2022-12-15T19:47:52.060Z,65.60
2022-12-15T19:50:33.150Z,61.25
2022-12-15T19:53:06.586Z,65.40
2022-12-15T19:55:35.880Z,61.92
2022-12-15T19:58:31.639Z,68.85
2022-12-15T20:01:06.363Z,58.70
2022-12-15T20:03:35.135Z,49.73
2022-12-15T20:06:04.574Z,48.85
2022-12-15T20:08:38.761Z,55.92
2022-12-15T20:11:13.011Z,60.08
2022-12-15T20:13:40.216Z,56.47
2022-12-15T20:16:09.030Z,54.45
2022-12-15T20:18:36.443Z,59.78
2022-12-15T20:21:03.778Z,61.03
2022-12-15T20:23:31.811Z,58.28
2022-12-15T20:26:01.121Z,60.63
2022-12-15T20:28:30.130Z,56.65
2022-12-15T20:30:58.190Z,54.38
2022-12-15T20:33:25.481Z,54.13
2022-12-15T20:35:53.111Z,51.15
2022-12-15T20:38:34.057Z,54.47
2022-12-15T20:41:03.591Z,67.20
2022-12-15T20:43:34.584Z,54.47
2022-12-15T20:46:13.166Z,54.58
2022-12-15T20:48:40.790Z,57.85
2022-12-15T20:51:30.946Z,57.67
2022-12-15T20:54:02.260Z,55.00
2022-12-15T20:56:29.858Z,57.13
2022-12-15T20:58:58.750Z,52.95
2022-12-15T21:01:33.513Z,50.13
2022-12-15T21:04:16.637Z,46.17
2022-12-15T21:06:44.408Z,51.65
2022-12-15T21:09:14.830Z,47.75
2022-12-15T21:11:42.380Z,47.83
2022-12-15T21:14:20.408Z,44.88
2022-12-15T21:16:48.346Z,47.25
2022-12-15T21:19:21.277Z,45.67
2022-12-15T21:21:55.302Z,45.97
2022-12-15T21:24:28.544Z,41.85
2022-12-15T21:26:56.263Z,42.53
2022-12-15T21:29:27.950Z,47.35
2022-12-15T21:31:55.204Z,49.10
2022-12-15T21:34:22.585Z,46.17
2022-12-15T21:36:55.213Z,52.38
2022-12-15T21:39:34.068Z,46.60
2022-12-15T21:42:12.219Z,47.50
2022-12-15T21:44:39.516Z,54.78
2022-12-15T21:47:49.768Z,59.15
2022-12-15T21:50:19.821Z,51.13
2022-12-15T21:52:47.895Z,55.88
2022-12-15T21:55:21.278Z,50.40
2022-12-15T21:57:49.005Z,49.42
2022-12-15T22:00:18.867Z,52.45
2022-12-15T22:02:49.402Z,49.30
2022-12-15T22:05:29.202Z,53.05
2022-12-15T22:07:58.628Z,50.85
2022-12-15T22:10:26.243Z,54.28
2022-12-15T22:12:59.289Z,86.03
2022-12-15T22:15:28.681Z,51.88
2022-12-15T22:17:56.057Z,54.15
2022-12-15T22:20:25.174Z,48.65
2022-12-15T22:22:52.348Z,50.00
2022-12-15T22:25:25.904Z,53.13
2022-12-15T22:27:54.738Z,45.75
2022-12-15T22:30:27.133Z,47.00
2022-12-15T22:32:54.625Z,64.13
2022-12-15T22:35:26.146Z,43.42
2022-12-15T22:37:53.796Z,42.03
2022-12-15T22:40:22.714Z,51.88
2022-12-15T22:42:55.483Z,49.13
2022-12-15T22:45:26.158Z,50.03
2022-12-15T22:47:55.177Z,45.95
2022-12-15T22:50:26.760Z,48.10
2022-12-15T22:52:55.074Z,47.45
2022-12-15T22:55:24.347Z,50.95
2022-12-15T22:58:07.397Z,51.53
2022-12-15T23:00:34.824Z,50.33
2022-12-15T23:03:02.470Z,52.58
2022-12-15T23:05:29.883Z,46.20
2022-12-15T23:07:58.614Z,47.30
2022-12-15T23:10:44.560Z,46.60
2022-12-15T23:13:11.831Z,51.58
2022-12-15T23:15:57.587Z,56.50
2022-12-15T23:18:25.000Z,52.03
2022-12-15T23:20:52.323Z,54.47
2022-12-15T23:23:19.872Z,57.13
2022-12-15T23:25:47.099Z,52.28
2022-12-15T23:28:14.609Z,56.00
2022-12-15T23:30:41.913Z,52.70
2022-12-15T23:33:09.044Z,52.00
2022-12-15T23:35:40.564Z,57.65
2022-12-15T23:38:07.734Z,56.20
2022-12-15T23:40:35.804Z,59.78
2022-12-15T23:43:03.249Z,57.53
2022-12-15T23:45:30.396Z,57.78
2022-12-15T23:47:57.573Z,57.72
2022-12-15T23:50:24.826Z,59.05
2022-12-15T23:52:52.114Z,62.97
2022-12-15T23:55:19.569Z,58.08
2022-12-15T23:57:46.841Z,64.57
